sensor_id;sensor_type;location;lat;lon;timestamp;temperature;humidity
13310;DHT22;6723;48.256;16.402;2022-07-22T00:01:34;25.70;97.40
13310;DHT22;6723;48.256;16.402;2022-07-22T00:04:00;25.70;97.80
13310;DHT22;6723;48.256;16.402;2022-07-22T00:06:28;25.60;98.50
13310;DHT22;6723;48.256;16.402;2022-07-22T00:08:55;25.60;98.80
13310;DHT22;6723;48.256;16.402;2022-07-22T00:11:22;25.50;99.30
13310;DHT22;6723;48.256;16.402;2022-07-22T00:13:48;25.50;99.80
13310;DHT22;6723;48.256;16.402;2022-07-22T00:16:13;25.40;99.90
13310;DHT22;6723;48.256;16.402;2022-07-22T00:18:39;25.30;99.90
13310;DHT22;6723;48.256;16.402;2022-07-22T00:21:12;25.20;99.90
13310;DHT22;6723;48.256;16.402;2022-07-22T00:23:38;25.20;99.90
13310;DHT22;6723;48.256;16.402;2022-07-22T00:26:04;25.10;99.90
13310;DHT22;6723;48.256;16.402;2022-07-22T00:28:30;25.10;99.90
13310;DHT22;6723;48.256;16.402;2022-07-22T00:30:56;25.00;99.90
13310;DHT22;6723;48.256;16.402;2022-07-22T00:33:22;25.00;99.90
13310;DHT22;6723;48.256;16.402;2022-07-22T00:35:48;25.10;99.90
13310;DHT22;6723;48.256;16.402;2022-07-22T00:38:14;25.10;99.90
13310;DHT22;6723;48.256;16.402;2022-07-22T00:40:40;25.10;99.90
13310;DHT22;6723;48.256;16.402;2022-07-22T00:43:06;25.00;99.90
13310;DHT22;6723;48.256;16.402;2022-07-22T00:45:32;25.00;99.90
13310;DHT22;6723;48.256;16.402;2022-07-22T00:47:58;25.00;99.90
13310;DHT22;6723;48.256;16.402;2022-07-22T00:50:23;24.90;99.90
13310;DHT22;6723;48.256;16.402;2022-07-22T00:52:50;24.90;99.90
13310;DHT22;6723;48.256;16.402;2022-07-22T00:55:16;24.90;99.90
13310;DHT22;6723;48.256;16.402;2022-07-22T00:57:42;24.80;99.90
13310;DHT22;6723;48.256;16.402;2022-07-22T01:00:12;24.90;99.90
13310;DHT22;6723;48.256;16.402;2022-07-22T01:02:38;24.90;99.90
13310;DHT22;6723;48.256;16.402;2022-07-22T01:05:05;24.90;99.90
13310;DHT22;6723;48.256;16.402;2022-07-22T01:07:32;24.90;99.90
13310;DHT22;6723;48.256;16.402;2022-07-22T01:09:57;24.80;99.90
13310;DHT22;6723;48.256;16.402;2022-07-22T01:12:23;24.80;99.90
13310;DHT22;6723;48.256;16.402;2022-07-22T01:14:49;24.80;99.90
13310;DHT22;6723;48.256;16.402;2022-07-22T01:17:15;24.80;99.90
13310;DHT22;6723;48.256;16.402;2022-07-22T01:19:41;24.70;99.90
13310;DHT22;6723;48.256;16.402;2022-07-22T01:22:07;24.70;99.90
13310;DHT22;6723;48.256;16.402;2022-07-22T01:24:33;24.60;99.90
13310;DHT22;6723;48.256;16.402;2022-07-22T01:26:59;24.60;99.90
13310;DHT22;6723;48.256;16.402;2022-07-22T01:29:25;24.50;99.90
13310;DHT22;6723;48.256;16.402;2022-07-22T01:31:51;24.50;99.90
13310;DHT22;6723;48.256;16.402;2022-07-22T01:34:17;24.60;99.90
13310;DHT22;6723;48.256;16.402;2022-07-22T01:36:43;24.50;99.90
13310;DHT22;6723;48.256;16.402;2022-07-22T01:39:09;24.50;99.90
13310;DHT22;6723;48.256;16.402;2022-07-22T01:41:35;24.50;99.90
13310;DHT22;6723;48.256;16.402;2022-07-22T01:44:01;24.50;99.90
13310;DHT22;6723;48.256;16.402;2022-07-22T01:46:27;24.50;99.90
13310;DHT22;6723;48.256;16.402;2022-07-22T01:48:53;24.40;99.90
13310;DHT22;6723;48.256;16.402;2022-07-22T01:51:19;24.40;99.90
13310;DHT22;6723;48.256;16.402;2022-07-22T01:53:45;24.40;99.90
13310;DHT22;6723;48.256;16.402;2022-07-22T01:56:11;24.40;99.90
13310;DHT22;6723;48.256;16.402;2022-07-22T01:58:36;24.30;99.90
13310;DHT22;6723;48.256;16.402;2022-07-22T02:01:02;24.20;99.90
13310;DHT22;6723;48.256;16.402;2022-07-22T02:03:28;24.30;99.90
13310;DHT22;6723;48.256;16.402;2022-07-22T02:05:54;24.20;99.90
13310;DHT22;6723;48.256;16.402;2022-07-22T02:08:20;24.20;99.90
13310;DHT22;6723;48.256;16.402;2022-07-22T02:10:45;24.20;99.90
13310;DHT22;6723;48.256;16.402;2022-07-22T02:13:11;24.20;99.90
13310;DHT22;6723;48.256;16.402;2022-07-22T02:15:37;24.20;99.90
13310;DHT22;6723;48.256;16.402;2022-07-22T02:18:14;24.20;99.90
13310;DHT22;6723;48.256;16.402;2022-07-22T02:20:41;24.20;99.90
13310;DHT22;6723;48.256;16.402;2022-07-22T02:23:07;24.10;99.90
13310;DHT22;6723;48.256;16.402;2022-07-22T02:25:34;24.10;99.90
13310;DHT22;6723;48.256;16.402;2022-07-22T02:28:00;24.10;99.90
13310;DHT22;6723;48.256;16.402;2022-07-22T02:30:26;24.10;99.90
13310;DHT22;6723;48.256;16.402;2022-07-22T02:32:52;24.10;99.90
13310;DHT22;6723;48.256;16.402;2022-07-22T02:35:18;24.00;99.90
13310;DHT22;6723;48.256;16.402;2022-07-22T02:37:44;24.10;99.90
13310;DHT22;6723;48.256;16.402;2022-07-22T02:40:09;24.10;99.90
13310;DHT22;6723;48.256;16.402;2022-07-22T02:42:35;24.00;99.90
13310;DHT22;6723;48.256;16.402;2022-07-22T02:45:02;24.00;99.90
13310;DHT22;6723;48.256;16.402;2022-07-22T02:47:28;23.90;99.90
13310;DHT22;6723;48.256;16.402;2022-07-22T02:49:54;23.90;99.90
13310;DHT22;6723;48.256;16.402;2022-07-22T02:52:20;23.90;99.90
13310;DHT22;6723;48.256;16.402;2022-07-22T02:54:46;23.80;99.90
13310;DHT22;6723;48.256;16.402;2022-07-22T02:57:11;23.90;99.90
13310;DHT22;6723;48.256;16.402;2022-07-22T02:59:37;23.80;99.90
13310;DHT22;6723;48.256;16.402;2022-07-22T03:02:03;23.80;99.90
13310;DHT22;6723;48.256;16.402;2022-07-22T03:04:29;23.70;99.90
13310;DHT22;6723;48.256;16.402;2022-07-22T03:06:55;23.70;99.90
13310;DHT22;6723;48.256;16.402;2022-07-22T03:09:21;23.60;99.90
13310;DHT22;6723;48.256;16.402;2022-07-22T03:11:47;23.60;99.90
13310;DHT22;6723;48.256;16.402;2022-07-22T03:14:13;23.60;99.90
13310;DHT22;6723;48.256;16.402;2022-07-22T03:16:39;23.60;99.90
13310;DHT22;6723;48.256;16.402;2022-07-22T03:19:05;23.50;99.90
13310;DHT22;6723;48.256;16.402;2022-07-22T03:21:31;23.60;99.90
13310;DHT22;6723;48.256;16.402;2022-07-22T03:23:57;23.50;99.90
13310;DHT22;6723;48.256;16.402;2022-07-22T03:26:23;23.50;99.90
13310;DHT22;6723;48.256;16.402;2022-07-22T03:28:49;23.50;99.90
13310;DHT22;6723;48.256;16.402;2022-07-22T03:31:15;23.50;99.90
13310;DHT22;6723;48.256;16.402;2022-07-22T03:33:41;23.40;99.90
13310;DHT22;6723;48.256;16.402;2022-07-22T03:36:07;23.40;99.90
13310;DHT22;6723;48.256;16.402;2022-07-22T03:38:34;23.40;99.90
13310;DHT22;6723;48.256;16.402;2022-07-22T03:41:00;23.30;99.90
13310;DHT22;6723;48.256;16.402;2022-07-22T03:43:26;23.40;99.90
13310;DHT22;6723;48.256;16.402;2022-07-22T03:45:52;23.30;99.90
13310;DHT22;6723;48.256;16.402;2022-07-22T03:48:18;23.40;99.90
13310;DHT22;6723;48.256;16.402;2022-07-22T03:50:44;23.60;99.90
13310;DHT22;6723;48.256;16.402;2022-07-22T03:53:09;23.70;99.90
13310;DHT22;6723;48.256;16.402;2022-07-22T03:55:35;23.70;99.90
13310;DHT22;6723;48.256;16.402;2022-07-22T03:58:01;23.70;99.90
13310;DHT22;6723;48.256;16.402;2022-07-22T04:00:27;23.80;99.90
13310;DHT22;6723;48.256;16.402;2022-07-22T04:02:52;23.80;99.90
13310;DHT22;6723;48.256;16.402;2022-07-22T04:05:18;23.90;99.90
13310;DHT22;6723;48.256;16.402;2022-07-22T04:07:44;23.90;99.90
13310;DHT22;6723;48.256;16.402;2022-07-22T04:10:10;23.90;99.90
13310;DHT22;6723;48.256;16.402;2022-07-22T04:12:37;24.00;99.90
13310;DHT22;6723;48.256;16.402;2022-07-22T04:15:04;24.00;99.90
13310;DHT22;6723;48.256;16.402;2022-07-22T04:17:31;24.20;99.90
13310;DHT22;6723;48.256;16.402;2022-07-22T04:19:56;24.30;99.90
13310;DHT22;6723;48.256;16.402;2022-07-22T04:22:23;24.40;99.90
13310;DHT22;6723;48.256;16.402;2022-07-22T04:24:49;24.40;99.90
13310;DHT22;6723;48.256;16.402;2022-07-22T04:27:15;24.40;99.90
13310;DHT22;6723;48.256;16.402;2022-07-22T04:29:40;24.50;99.90
13310;DHT22;6723;48.256;16.402;2022-07-22T04:32:06;24.50;99.90
13310;DHT22;6723;48.256;16.402;2022-07-22T04:34:32;24.60;99.90
13310;DHT22;6723;48.256;16.402;2022-07-22T04:36:58;24.60;99.90
13310;DHT22;6723;48.256;16.402;2022-07-22T04:39:24;24.70;99.90
13310;DHT22;6723;48.256;16.402;2022-07-22T04:41:50;24.80;99.90
13310;DHT22;6723;48.256;16.402;2022-07-22T04:44:15;24.80;99.90
13310;DHT22;6723;48.256;16.402;2022-07-22T04:46:41;24.80;99.90
13310;DHT22;6723;48.256;16.402;2022-07-22T04:49:07;24.90;99.90
13310;DHT22;6723;48.256;16.402;2022-07-22T04:51:32;25.00;99.90
13310;DHT22;6723;48.256;16.402;2022-07-22T04:53:58;25.00;99.90
13310;DHT22;6723;48.256;16.402;2022-07-22T04:56:24;25.10;99.90
13310;DHT22;6723;48.256;16.402;2022-07-22T04:58:50;25.20;99.90
13310;DHT22;6723;48.256;16.402;2022-07-22T05:01:16;25.10;99.90
13310;DHT22;6723;48.256;16.402;2022-07-22T05:03:43;25.10;99.90
13310;DHT22;6723;48.256;16.402;2022-07-22T05:06:09;25.10;99.90
13310;DHT22;6723;48.256;16.402;2022-07-22T05:08:35;25.10;99.90
13310;DHT22;6723;48.256;16.402;2022-07-22T05:11:02;25.20;99.90
13310;DHT22;6723;48.256;16.402;2022-07-22T05:13:28;25.20;99.90
13310;DHT22;6723;48.256;16.402;2022-07-22T05:15:54;25.10;99.90
13310;DHT22;6723;48.256;16.402;2022-07-22T05:18:20;25.10;99.90
13310;DHT22;6723;48.256;16.402;2022-07-22T05:20:47;25.20;99.90
13310;DHT22;6723;48.256;16.402;2022-07-22T05:23:12;25.30;99.90
13310;DHT22;6723;48.256;16.402;2022-07-22T05:25:38;25.40;99.90
13310;DHT22;6723;48.256;16.402;2022-07-22T05:28:04;25.40;99.90
13310;DHT22;6723;48.256;16.402;2022-07-22T05:30:30;25.60;99.90
13310;DHT22;6723;48.256;16.402;2022-07-22T05:32:56;25.70;99.90
13310;DHT22;6723;48.256;16.402;2022-07-22T05:35:35;25.80;99.90
13310;DHT22;6723;48.256;16.402;2022-07-22T05:38:00;25.80;99.90
13310;DHT22;6723;48.256;16.402;2022-07-22T05:40:26;25.90;99.90
13310;DHT22;6723;48.256;16.402;2022-07-22T05:42:52;25.90;99.90
13310;DHT22;6723;48.256;16.402;2022-07-22T05:45:18;26.10;99.90
13310;DHT22;6723;48.256;16.402;2022-07-22T05:47:43;26.10;99.90
13310;DHT22;6723;48.256;16.402;2022-07-22T05:50:09;26.20;99.80
13310;DHT22;6723;48.256;16.402;2022-07-22T05:52:36;26.20;99.30
13310;DHT22;6723;48.256;16.402;2022-07-22T05:55:02;26.30;99.10
13310;DHT22;6723;48.256;16.402;2022-07-22T05:57:29;26.40;98.90
13310;DHT22;6723;48.256;16.402;2022-07-22T05:59:54;26.50;98.60
13310;DHT22;6723;48.256;16.402;2022-07-22T06:02:20;26.50;98.00
13310;DHT22;6723;48.256;16.402;2022-07-22T06:04:46;26.60;98.00
13310;DHT22;6723;48.256;16.402;2022-07-22T06:07:20;26.70;97.50
13310;DHT22;6723;48.256;16.402;2022-07-22T06:10:04;26.90;97.30
13310;DHT22;6723;48.256;16.402;2022-07-22T06:12:30;26.90;96.80
13310;DHT22;6723;48.256;16.402;2022-07-22T06:14:59;27.00;96.40
13310;DHT22;6723;48.256;16.402;2022-07-22T06:17:24;27.10;96.20
13310;DHT22;6723;48.256;16.402;2022-07-22T06:19:50;27.20;96.30
13310;DHT22;6723;48.256;16.402;2022-07-22T06:22:16;27.20;95.70
13310;DHT22;6723;48.256;16.402;2022-07-22T06:24:44;27.40;95.80
13310;DHT22;6723;48.256;16.402;2022-07-22T06:27:10;27.40;95.20
13310;DHT22;6723;48.256;16.402;2022-07-22T06:29:36;27.40;94.90
13310;DHT22;6723;48.256;16.402;2022-07-22T06:32:02;27.50;94.30
13310;DHT22;6723;48.256;16.402;2022-07-22T06:34:28;27.60;94.20
13310;DHT22;6723;48.256;16.402;2022-07-22T06:36:55;27.70;93.90
13310;DHT22;6723;48.256;16.402;2022-07-22T06:39:21;27.90;93.80
13310;DHT22;6723;48.256;16.402;2022-07-22T06:41:47;27.90;93.60
13310;DHT22;6723;48.256;16.402;2022-07-22T06:44:12;28.00;93.10
13310;DHT22;6723;48.256;16.402;2022-07-22T06:46:38;28.10;92.80
13310;DHT22;6723;48.256;16.402;2022-07-22T06:49:06;28.30;92.70
13310;DHT22;6723;48.256;16.402;2022-07-22T06:51:33;28.30;92.10
13310;DHT22;6723;48.256;16.402;2022-07-22T06:53:59;28.40;92.00
13310;DHT22;6723;48.256;16.402;2022-07-22T06:56:25;28.50;92.10
13310;DHT22;6723;48.256;16.402;2022-07-22T06:58:51;28.70;91.80
13310;DHT22;6723;48.256;16.402;2022-07-22T07:01:17;28.80;91.70
13310;DHT22;6723;48.256;16.402;2022-07-22T07:03:43;29.20;91.10
13310;DHT22;6723;48.256;16.402;2022-07-22T07:06:10;29.20;90.70
13310;DHT22;6723;48.256;16.402;2022-07-22T07:08:37;29.40;90.20
13310;DHT22;6723;48.256;16.402;2022-07-22T07:11:03;29.80;89.80
13310;DHT22;6723;48.256;16.402;2022-07-22T07:13:29;29.80;88.90
13310;DHT22;6723;48.256;16.402;2022-07-22T07:15:56;30.10;87.80
13310;DHT22;6723;48.256;16.402;2022-07-22T07:18:22;30.40;86.40
13310;DHT22;6723;48.256;16.402;2022-07-22T07:20:47;30.60;85.00
13310;DHT22;6723;48.256;16.402;2022-07-22T07:23:14;30.90;83.80
13310;DHT22;6723;48.256;16.402;2022-07-22T07:25:40;31.40;83.10
13310;DHT22;6723;48.256;16.402;2022-07-22T07:28:13;32.10;80.80
13310;DHT22;6723;48.256;16.402;2022-07-22T07:30:42;32.70;79.50
13310;DHT22;6723;48.256;16.402;2022-07-22T07:33:08;33.20;76.90
13310;DHT22;6723;48.256;16.402;2022-07-22T07:35:34;33.80;75.40
13310;DHT22;6723;48.256;16.402;2022-07-22T07:38:00;34.00;73.10
13310;DHT22;6723;48.256;16.402;2022-07-22T07:40:26;35.00;71.20
13310;DHT22;6723;48.256;16.402;2022-07-22T07:42:52;35.60;68.90
13310;DHT22;6723;48.256;16.402;2022-07-22T07:45:24;36.30;66.90
13310;DHT22;6723;48.256;16.402;2022-07-22T07:47:50;37.00;65.50
13310;DHT22;6723;48.256;16.402;2022-07-22T07:50:16;37.50;63.70
13310;DHT22;6723;48.256;16.402;2022-07-22T07:52:44;37.90;62.70
13310;DHT22;6723;48.256;16.402;2022-07-22T07:55:13;38.20;61.10
13310;DHT22;6723;48.256;16.402;2022-07-22T07:57:39;37.80;60.70
13310;DHT22;6723;48.256;16.402;2022-07-22T08:00:08;38.20;60.50
13310;DHT22;6723;48.256;16.402;2022-07-22T08:02:35;38.20;59.10
13310;DHT22;6723;48.256;16.402;2022-07-22T08:05:01;38.00;59.20
13310;DHT22;6723;48.256;16.402;2022-07-22T08:07:28;38.50;59.10
13310;DHT22;6723;48.256;16.402;2022-07-22T08:12:58;38.80;57.80
13310;DHT22;6723;48.256;16.402;2022-07-22T08:15:26;39.00;57.20
13310;DHT22;6723;48.256;16.402;2022-07-22T08:17:52;39.20;56.30
13310;DHT22;6723;48.256;16.402;2022-07-22T08:20:18;39.10;56.30
13310;DHT22;6723;48.256;16.402;2022-07-22T08:22:44;39.10;56.70
13310;DHT22;6723;48.256;16.402;2022-07-22T08:25:10;39.70;55.60
13310;DHT22;6723;48.256;16.402;2022-07-22T08:27:36;39.80;54.60
13310;DHT22;6723;48.256;16.402;2022-07-22T08:30:03;39.30;55.00
13310;DHT22;6723;48.256;16.402;2022-07-22T08:32:31;39.80;54.90
13310;DHT22;6723;48.256;16.402;2022-07-22T08:34:57;39.50;53.90
13310;DHT22;6723;48.256;16.402;2022-07-22T08:37:23;39.70;54.60
13310;DHT22;6723;48.256;16.402;2022-07-22T08:39:49;40.20;54.10
13310;DHT22;6723;48.256;16.402;2022-07-22T08:42:15;40.30;53.40
13310;DHT22;6723;48.256;16.402;2022-07-22T08:44:41;40.60;52.40
13310;DHT22;6723;48.256;16.402;2022-07-22T08:47:07;40.00;52.70
13310;DHT22;6723;48.256;16.402;2022-07-22T08:49:33;40.70;53.10
13310;DHT22;6723;48.256;16.402;2022-07-22T08:51:58;40.50;52.00
13310;DHT22;6723;48.256;16.402;2022-07-22T08:54:24;40.70;52.50
13310;DHT22;6723;48.256;16.402;2022-07-22T08:56:51;41.00;52.20
13310;DHT22;6723;48.256;16.402;2022-07-22T08:59:18;40.60;50.70
13310;DHT22;6723;48.256;16.402;2022-07-22T09:02:04;40.50;51.70
13310;DHT22;6723;48.256;16.402;2022-07-22T09:04:31;40.70;51.30
13310;DHT22;6723;48.256;16.402;2022-07-22T09:06:57;40.70;51.10
13310;DHT22;6723;48.256;16.402;2022-07-22T09:09:32;40.10;51.30
13310;DHT22;6723;48.256;16.402;2022-07-22T09:12:06;40.40;51.80
13310;DHT22;6723;48.256;16.402;2022-07-22T09:14:45;40.90;51.50
13310;DHT22;6723;48.256;16.402;2022-07-22T09:17:32;41.20;51.00
13310;DHT22;6723;48.256;16.402;2022-07-22T09:20:20;41.50;51.00
13310;DHT22;6723;48.256;16.402;2022-07-22T09:22:48;41.30;49.80
13310;DHT22;6723;48.256;16.402;2022-07-22T09:25:34;41.20;50.60
13310;DHT22;6723;48.256;16.402;2022-07-22T09:30:37;41.40;48.90
13310;DHT22;6723;48.256;16.402;2022-07-22T09:33:04;41.40;49.50
13310;DHT22;6723;48.256;16.402;2022-07-22T09:35:30;41.30;48.60
13310;DHT22;6723;48.256;16.402;2022-07-22T09:38:02;40.90;49.20
13310;DHT22;6723;48.256;16.402;2022-07-22T09:40:31;40.80;48.70
13310;DHT22;6723;48.256;16.402;2022-07-22T09:43:03;40.40;49.50
13310;DHT22;6723;48.256;16.402;2022-07-22T09:45:30;40.30;49.80
13310;DHT22;6723;48.256;16.402;2022-07-22T09:47:57;40.10;49.40
13310;DHT22;6723;48.256;16.402;2022-07-22T09:50:25;40.40;50.20
13310;DHT22;6723;48.256;16.402;2022-07-22T09:52:54;40.60;50.20
13310;DHT22;6723;48.256;16.402;2022-07-22T09:55:22;40.40;50.10
13310;DHT22;6723;48.256;16.402;2022-07-22T09:57:49;40.50;49.00
13310;DHT22;6723;48.256;16.402;2022-07-22T10:00:18;40.50;49.00
13310;DHT22;6723;48.256;16.402;2022-07-22T10:02:51;40.40;48.10
13310;DHT22;6723;48.256;16.402;2022-07-22T10:05:19;39.90;49.20
13310;DHT22;6723;48.256;16.402;2022-07-22T10:07:47;39.60;49.80
13310;DHT22;6723;48.256;16.402;2022-07-22T10:10:18;39.40;50.50
13310;DHT22;6723;48.256;16.402;2022-07-22T10:12:48;39.80;49.80
13310;DHT22;6723;48.256;16.402;2022-07-22T10:15:15;40.40;49.50
13310;DHT22;6723;48.256;16.402;2022-07-22T10:17:48;40.20;49.40
13310;DHT22;6723;48.256;16.402;2022-07-22T10:20:18;40.10;49.00
13310;DHT22;6723;48.256;16.402;2022-07-22T10:22:47;39.80;50.20
13310;DHT22;6723;48.256;16.402;2022-07-22T10:25:16;40.00;49.50
13310;DHT22;6723;48.256;16.402;2022-07-22T10:30:14;39.50;48.30
13310;DHT22;6723;48.256;16.402;2022-07-22T10:32:41;39.30;48.90
13310;DHT22;6723;48.256;16.402;2022-07-22T10:37:39;40.10;49.60
13310;DHT22;6723;48.256;16.402;2022-07-22T10:40:24;40.40;48.80
13310;DHT22;6723;48.256;16.402;2022-07-22T10:45:26;40.90;46.30
13310;DHT22;6723;48.256;16.402;2022-07-22T10:47:56;41.00;45.30
13310;DHT22;6723;48.256;16.402;2022-07-22T10:53:25;40.90;45.40
13310;DHT22;6723;48.256;16.402;2022-07-22T10:56:13;40.70;45.40
13310;DHT22;6723;48.256;16.402;2022-07-22T10:58:43;40.80;44.40
13310;DHT22;6723;48.256;16.402;2022-07-22T11:01:12;41.00;44.20
13310;DHT22;6723;48.256;16.402;2022-07-22T11:03:39;41.30;44.40
13310;DHT22;6723;48.256;16.402;2022-07-22T11:06:22;41.20;44.50
13310;DHT22;6723;48.256;16.402;2022-07-22T11:08:55;41.30;44.10
13310;DHT22;6723;48.256;16.402;2022-07-22T11:14:02;41.50;43.00
13310;DHT22;6723;48.256;16.402;2022-07-22T11:16:28;41.40;42.60
13310;DHT22;6723;48.256;16.402;2022-07-22T11:18:57;41.60;43.50
13310;DHT22;6723;48.256;16.402;2022-07-22T11:21:25;41.30;44.00
13310;DHT22;6723;48.256;16.402;2022-07-22T11:23:55;41.30;44.50
13310;DHT22;6723;48.256;16.402;2022-07-22T11:26:42;41.30;43.10
13310;DHT22;6723;48.256;16.402;2022-07-22T11:29:15;41.40;43.40
13310;DHT22;6723;48.256;16.402;2022-07-22T11:31:41;41.20;43.40
13310;DHT22;6723;48.256;16.402;2022-07-22T11:34:09;41.20;43.40
13310;DHT22;6723;48.256;16.402;2022-07-22T11:36:37;41.60;42.60
13310;DHT22;6723;48.256;16.402;2022-07-22T11:39:04;40.70;42.10
13310;DHT22;6723;48.256;16.402;2022-07-22T11:41:30;40.90;43.00
13310;DHT22;6723;48.256;16.402;2022-07-22T11:43:57;40.50;42.70
13310;DHT22;6723;48.256;16.402;2022-07-22T11:46:24;40.80;43.60
13310;DHT22;6723;48.256;16.402;2022-07-22T11:48:54;41.10;42.30
13310;DHT22;6723;48.256;16.402;2022-07-22T11:51:29;41.60;43.20
13310;DHT22;6723;48.256;16.402;2022-07-22T11:53:55;41.30;42.90
13310;DHT22;6723;48.256;16.402;2022-07-22T11:56:22;41.00;42.70
13310;DHT22;6723;48.256;16.402;2022-07-22T11:58:49;40.60;42.60
13310;DHT22;6723;48.256;16.402;2022-07-22T12:01:17;39.30;43.50
13310;DHT22;6723;48.256;16.402;2022-07-22T12:03:50;39.40;43.90
13310;DHT22;6723;48.256;16.402;2022-07-22T12:06:17;39.10;43.90
13310;DHT22;6723;48.256;16.402;2022-07-22T12:08:46;38.60;44.60
13310;DHT22;6723;48.256;16.402;2022-07-22T12:11:15;38.30;45.00
13310;DHT22;6723;48.256;16.402;2022-07-22T12:13:47;38.40;45.50
13310;DHT22;6723;48.256;16.402;2022-07-22T12:16:28;38.00;45.60
13310;DHT22;6723;48.256;16.402;2022-07-22T12:21:20;38.00;45.70
13310;DHT22;6723;48.256;16.402;2022-07-22T12:23:56;38.10;46.90
13310;DHT22;6723;48.256;16.402;2022-07-22T12:26:43;38.10;45.80
13310;DHT22;6723;48.256;16.402;2022-07-22T12:31:56;38.10;45.70
13310;DHT22;6723;48.256;16.402;2022-07-22T12:34:36;38.20;45.80
13310;DHT22;6723;48.256;16.402;2022-07-22T12:42:38;38.50;46.50
13310;DHT22;6723;48.256;16.402;2022-07-22T12:45:08;38.90;46.10
13310;DHT22;6723;48.256;16.402;2022-07-22T12:50:32;39.40;45.30
13310;DHT22;6723;48.256;16.402;2022-07-22T12:53:00;39.20;44.70
13310;DHT22;6723;48.256;16.402;2022-07-22T12:55:31;38.70;44.70
13310;DHT22;6723;48.256;16.402;2022-07-22T12:57:57;38.40;45.20
13310;DHT22;6723;48.256;16.402;2022-07-22T13:00:34;37.90;45.30
13310;DHT22;6723;48.256;16.402;2022-07-22T13:03:01;37.20;46.40
13310;DHT22;6723;48.256;16.402;2022-07-22T13:05:27;36.60;47.10
13310;DHT22;6723;48.256;16.402;2022-07-22T13:07:54;37.00;47.30
13310;DHT22;6723;48.256;16.402;2022-07-22T13:10:22;37.10;47.30
13310;DHT22;6723;48.256;16.402;2022-07-22T13:12:49;37.50;47.00
13310;DHT22;6723;48.256;16.402;2022-07-22T13:15:15;37.60;47.00
13310;DHT22;6723;48.256;16.402;2022-07-22T13:17:42;37.50;46.30
13310;DHT22;6723;48.256;16.402;2022-07-22T13:20:09;36.50;47.10
13310;DHT22;6723;48.256;16.402;2022-07-22T13:22:36;36.50;47.60
13310;DHT22;6723;48.256;16.402;2022-07-22T13:25:02;36.40;47.40
13310;DHT22;6723;48.256;16.402;2022-07-22T13:27:29;36.90;47.90
13310;DHT22;6723;48.256;16.402;2022-07-22T13:29:55;37.00;47.10
13310;DHT22;6723;48.256;16.402;2022-07-22T13:32:20;36.60;47.30
13310;DHT22;6723;48.256;16.402;2022-07-22T13:34:46;36.60;47.80
13310;DHT22;6723;48.256;16.402;2022-07-22T13:37:12;36.10;47.20
13310;DHT22;6723;48.256;16.402;2022-07-22T13:39:38;36.00;47.50
13310;DHT22;6723;48.256;16.402;2022-07-22T13:42:04;36.10;47.90
13310;DHT22;6723;48.256;16.402;2022-07-22T13:44:30;36.20;48.10
13310;DHT22;6723;48.256;16.402;2022-07-22T13:46:57;36.60;47.70
13310;DHT22;6723;48.256;16.402;2022-07-22T13:49:24;37.00;47.00
13310;DHT22;6723;48.256;16.402;2022-07-22T13:51:50;37.00;46.80
13310;DHT22;6723;48.256;16.402;2022-07-22T13:54:22;36.70;46.70
13310;DHT22;6723;48.256;16.402;2022-07-22T13:56:48;36.20;46.70
13310;DHT22;6723;48.256;16.402;2022-07-22T13:59:14;36.00;47.30
13310;DHT22;6723;48.256;16.402;2022-07-22T14:01:40;36.20;47.40
13310;DHT22;6723;48.256;16.402;2022-07-22T14:04:06;36.00;47.40
13310;DHT22;6723;48.256;16.402;2022-07-22T14:06:34;36.10;47.40
13310;DHT22;6723;48.256;16.402;2022-07-22T14:09:00;35.90;47.40
13310;DHT22;6723;48.256;16.402;2022-07-22T14:11:26;36.40;47.20
13310;DHT22;6723;48.256;16.402;2022-07-22T14:13:52;36.50;47.60
13310;DHT22;6723;48.256;16.402;2022-07-22T14:16:17;36.70;47.40
13310;DHT22;6723;48.256;16.402;2022-07-22T14:19:03;36.30;48.10
13310;DHT22;6723;48.256;16.402;2022-07-22T14:21:29;36.10;48.30
13310;DHT22;6723;48.256;16.402;2022-07-22T14:23:55;36.10;48.40
13310;DHT22;6723;48.256;16.402;2022-07-22T14:26:21;36.30;47.70
13310;DHT22;6723;48.256;16.402;2022-07-22T14:28:47;36.30;48.10
13310;DHT22;6723;48.256;16.402;2022-07-22T14:31:13;36.50;48.00
13310;DHT22;6723;48.256;16.402;2022-07-22T14:33:39;36.50;48.30
13310;DHT22;6723;48.256;16.402;2022-07-22T14:36:05;36.60;48.00
13310;DHT22;6723;48.256;16.402;2022-07-22T14:38:30;36.80;46.50
13310;DHT22;6723;48.256;16.402;2022-07-22T14:40:56;36.60;46.90
13310;DHT22;6723;48.256;16.402;2022-07-22T14:43:25;36.10;47.40
13310;DHT22;6723;48.256;16.402;2022-07-22T14:45:52;35.90;47.80
13310;DHT22;6723;48.256;16.402;2022-07-22T14:48:18;35.60;48.00
13310;DHT22;6723;48.256;16.402;2022-07-22T14:50:44;35.50;48.50
13310;DHT22;6723;48.256;16.402;2022-07-22T14:53:10;35.50;48.80
13310;DHT22;6723;48.256;16.402;2022-07-22T14:55:36;35.60;48.80
13310;DHT22;6723;48.256;16.402;2022-07-22T14:58:02;35.20;48.90
13310;DHT22;6723;48.256;16.402;2022-07-22T15:00:27;35.30;48.70
13310;DHT22;6723;48.256;16.402;2022-07-22T15:02:53;35.20;49.40
13310;DHT22;6723;48.256;16.402;2022-07-22T15:05:19;35.10;49.50
13310;DHT22;6723;48.256;16.402;2022-07-22T15:07:45;35.50;49.80
13310;DHT22;6723;48.256;16.402;2022-07-22T15:10:10;35.80;49.00
13310;DHT22;6723;48.256;16.402;2022-07-22T15:12:36;35.90;49.40
13310;DHT22;6723;48.256;16.402;2022-07-22T15:15:03;36.10;49.10
13310;DHT22;6723;48.256;16.402;2022-07-22T15:17:37;36.10;48.90
13310;DHT22;6723;48.256;16.402;2022-07-22T15:20:05;36.20;49.10
13310;DHT22;6723;48.256;16.402;2022-07-22T15:22:32;36.30;48.50
13310;DHT22;6723;48.256;16.402;2022-07-22T15:24:59;36.50;48.70
13310;DHT22;6723;48.256;16.402;2022-07-22T15:27:25;36.20;48.10
13310;DHT22;6723;48.256;16.402;2022-07-22T15:29:50;36.10;48.40
13310;DHT22;6723;48.256;16.402;2022-07-22T15:32:16;36.00;48.30
13310;DHT22;6723;48.256;16.402;2022-07-22T15:34:42;36.00;48.80
13310;DHT22;6723;48.256;16.402;2022-07-22T15:37:08;36.00;49.10
13310;DHT22;6723;48.256;16.402;2022-07-22T15:39:34;35.90;49.40
13310;DHT22;6723;48.256;16.402;2022-07-22T15:42:00;35.60;50.20
13310;DHT22;6723;48.256;16.402;2022-07-22T15:44:26;35.50;49.90
13310;DHT22;6723;48.256;16.402;2022-07-22T15:46:51;35.30;50.20
13310;DHT22;6723;48.256;16.402;2022-07-22T15:49:20;35.30;50.70
13310;DHT22;6723;48.256;16.402;2022-07-22T15:51:46;35.50;50.20
13310;DHT22;6723;48.256;16.402;2022-07-22T15:54:12;35.60;50.40
13310;DHT22;6723;48.256;16.402;2022-07-22T15:56:39;35.50;50.30
13310;DHT22;6723;48.256;16.402;2022-07-22T15:59:05;35.30;50.10
13310;DHT22;6723;48.256;16.402;2022-07-22T16:01:49;35.50;49.50
13310;DHT22;6723;48.256;16.402;2022-07-22T16:04:15;35.40;49.40